sensor_id;sensor_type;location;lat;lon;timestamp;pressure;altitude;pressure_sealevel;temperature
67353;BMP180;54238;52.278;21.056;2022-07-05T00:01:14;100601.40;;;21.80
67353;BMP180;54238;52.278;21.056;2022-07-05T00:03:41;100604.60;;;21.70
67353;BMP180;54238;52.278;21.056;2022-07-05T00:06:10;100605.20;;;21.70
67353;BMP180;54238;52.278;21.056;2022-07-05T00:08:41;100606.00;;;21.70
67353;BMP180;54238;52.278;21.056;2022-07-05T00:11:10;100605.60;;;21.60
67353;BMP180;54238;52.278;21.056;2022-07-05T00:13:44;100604.20;;;21.60
67353;BMP180;54238;52.278;21.056;2022-07-05T00:16:14;100597.40;;;21.60
67353;BMP180;54238;52.278;21.056;2022-07-05T00:18:41;100601.00;;;21.60
67353;BMP180;54238;52.278;21.056;2022-07-05T00:21:09;100600.80;;;21.50
67353;BMP180;54238;52.278;21.056;2022-07-05T00:23:35;100603.40;;;21.50
67353;BMP180;54238;52.278;21.056;2022-07-05T00:26:02;100593.00;;;21.50
67353;BMP180;54238;52.278;21.056;2022-07-05T00:28:29;100588.20;;;21.40
67353;BMP180;54238;52.278;21.056;2022-07-05T00:30:59;100592.60;;;21.40
67353;BMP180;54238;52.278;21.056;2022-07-05T00:33:28;100593.40;;;21.38
67353;BMP180;54238;52.278;21.056;2022-07-05T00:35:57;100590.60;;;21.30
67353;BMP180;54238;52.278;21.056;2022-07-05T00:38:29;100593.00;;;21.30
67353;BMP180;54238;52.278;21.056;2022-07-05T00:40:58;100592.60;;;21.20
67353;BMP180;54238;52.278;21.056;2022-07-05T00:43:25;100586.00;;;21.20
67353;BMP180;54238;52.278;21.056;2022-07-05T00:45:55;100591.60;;;21.20
67353;BMP180;54238;52.278;21.056;2022-07-05T00:48:25;100593.60;;;21.20
67353;BMP180;54238;52.278;21.056;2022-07-05T00:50:56;100603.80;;;21.10
67353;BMP180;54238;52.278;21.056;2022-07-05T00:53:29;100610.20;;;21.10
67353;BMP180;54238;52.278;21.056;2022-07-05T00:56:01;100614.80;;;21.10
67353;BMP180;54238;52.278;21.056;2022-07-05T00:58:32;100619.80;;;21.00
67353;BMP180;54238;52.278;21.056;2022-07-05T01:01:04;100627.60;;;21.00
67353;BMP180;54238;52.278;21.056;2022-07-05T01:03:35;100633.00;;;20.98
67353;BMP180;54238;52.278;21.056;2022-07-05T01:06:05;100635.00;;;21.00
67353;BMP180;54238;52.278;21.056;2022-07-05T01:08:39;100629.80;;;20.90
67353;BMP180;54238;52.278;21.056;2022-07-05T01:11:09;100633.80;;;20.90
67353;BMP180;54238;52.278;21.056;2022-07-05T01:13:38;100637.20;;;20.90
67353;BMP180;54238;52.278;21.056;2022-07-05T01:16:10;100634.00;;;20.96
67353;BMP180;54238;52.278;21.056;2022-07-05T01:18:43;100632.80;;;21.00
67353;BMP180;54238;52.278;21.056;2022-07-05T01:21:24;100627.80;;;21.00
67353;BMP180;54238;52.278;21.056;2022-07-05T01:23:52;100634.20;;;21.00
67353;BMP180;54238;52.278;21.056;2022-07-05T01:26:19;100637.00;;;20.90
67353;BMP180;54238;52.278;21.056;2022-07-05T01:28:46;100649.80;;;20.90
67353;BMP180;54238;52.278;21.056;2022-07-05T01:31:15;100651.20;;;20.80
67353;BMP180;54238;52.278;21.056;2022-07-05T01:33:42;100649.80;;;20.80
67353;BMP180;54238;52.278;21.056;2022-07-05T01:36:11;100653.40;;;20.70
67353;BMP180;54238;52.278;21.056;2022-07-05T01:38:44;100657.60;;;20.70
67353;BMP180;54238;52.278;21.056;2022-07-05T01:41:14;100654.80;;;20.60
67353;BMP180;54238;52.278;21.056;2022-07-05T01:43:41;100653.40;;;20.50
67353;BMP180;54238;52.278;21.056;2022-07-05T01:46:11;100651.80;;;20.50
67353;BMP180;54238;52.278;21.056;2022-07-05T01:48:41;100647.00;;;20.40
67353;BMP180;54238;52.278;21.056;2022-07-05T01:51:54;100644.80;;;20.30
67353;BMP180;54238;52.278;21.056;2022-07-05T01:54:24;100652.00;;;20.30
67353;BMP180;54238;52.278;21.056;2022-07-05T01:56:51;100655.20;;;20.20
67353;BMP180;54238;52.278;21.056;2022-07-05T01:59:20;100655.20;;;20.20
67353;BMP180;54238;52.278;21.056;2022-07-05T02:01:52;100656.00;;;20.10
67353;BMP180;54238;52.278;21.056;2022-07-05T02:04:21;100658.40;;;20.10
67353;BMP180;54238;52.278;21.056;2022-07-05T02:06:51;100658.20;;;20.00
67353;BMP180;54238;52.278;21.056;2022-07-05T02:09:18;100658.40;;;20.00
67353;BMP180;54238;52.278;21.056;2022-07-05T02:11:47;100656.40;;;20.00
67353;BMP180;54238;52.278;21.056;2022-07-05T02:14:14;100650.00;;;19.90
67353;BMP180;54238;52.278;21.056;2022-07-05T02:16:41;100653.00;;;19.90
67353;BMP180;54238;52.278;21.056;2022-07-05T02:19:08;100659.20;;;19.90
67353;BMP180;54238;52.278;21.056;2022-07-05T02:21:40;100663.00;;;19.90
67353;BMP180;54238;52.278;21.056;2022-07-05T02:24:09;100663.20;;;19.80
67353;BMP180;54238;52.278;21.056;2022-07-05T02:26:39;100660.00;;;19.80
67353;BMP180;54238;52.278;21.056;2022-07-05T02:29:13;100661.20;;;19.80
67353;BMP180;54238;52.278;21.056;2022-07-05T02:31:43;100660.60;;;19.80
67353;BMP180;54238;52.278;21.056;2022-07-05T02:34:10;100660.60;;;19.80
67353;BMP180;54238;52.278;21.056;2022-07-05T02:36:36;100663.60;;;19.80
67353;BMP180;54238;52.278;21.056;2022-07-05T02:39:06;100671.40;;;19.80
67353;BMP180;54238;52.278;21.056;2022-07-05T02:41:35;100670.60;;;19.80
67353;BMP180;54238;52.278;21.056;2022-07-05T02:44:07;100667.80;;;19.80
67353;BMP180;54238;52.278;21.056;2022-07-05T02:46:34;100667.20;;;19.70
67353;BMP180;54238;52.278;21.056;2022-07-05T02:49:07;100670.20;;;19.70
67353;BMP180;54238;52.278;21.056;2022-07-05T02:51:34;100670.40;;;19.70
67353;BMP180;54238;52.278;21.056;2022-07-05T02:54:07;100666.80;;;19.70
67353;BMP180;54238;52.278;21.056;2022-07-05T02:56:34;100669.20;;;19.70
67353;BMP180;54238;52.278;21.056;2022-07-05T02:59:06;100667.60;;;19.70
67353;BMP180;54238;52.278;21.056;2022-07-05T03:01:36;100665.40;;;19.70
67353;BMP180;54238;52.278;21.056;2022-07-05T03:04:03;100666.40;;;19.70
67353;BMP180;54238;52.278;21.056;2022-07-05T03:06:30;100670.20;;;19.70
67353;BMP180;54238;52.278;21.056;2022-07-05T03:09:02;100675.00;;;19.70
67353;BMP180;54238;52.278;21.056;2022-07-05T03:11:29;100678.40;;;19.70
67353;BMP180;54238;52.278;21.056;2022-07-05T03:13:56;100680.80;;;19.70
67353;BMP180;54238;52.278;21.056;2022-07-05T03:16:25;100684.00;;;19.80
67353;BMP180;54238;52.278;21.056;2022-07-05T03:18:54;100686.80;;;19.80
67353;BMP180;54238;52.278;21.056;2022-07-05T03:21:23;100691.80;;;19.80
67353;BMP180;54238;52.278;21.056;2022-07-05T03:23:50;100694.80;;;19.82
67353;BMP180;54238;52.278;21.056;2022-07-05T03:26:22;100698.60;;;19.90
67353;BMP180;54238;52.278;21.056;2022-07-05T03:28:49;100695.20;;;19.90
67353;BMP180;54238;52.278;21.056;2022-07-05T03:31:21;100694.00;;;19.90
67353;BMP180;54238;52.278;21.056;2022-07-05T03:33:51;100693.20;;;19.90
67353;BMP180;54238;52.278;21.056;2022-07-05T03:36:24;100698.60;;;20.00
67353;BMP180;54238;52.278;21.056;2022-07-05T03:38:56;100699.40;;;20.00
67353;BMP180;54238;52.278;21.056;2022-07-05T03:41:28;100699.20;;;20.00
67353;BMP180;54238;52.278;21.056;2022-07-05T03:43:57;100702.60;;;20.00
67353;BMP180;54238;52.278;21.056;2022-07-05T03:46:27;100709.60;;;20.02
67353;BMP180;54238;52.278;21.056;2022-07-05T03:48:57;100707.20;;;20.10
67353;BMP180;54238;52.278;21.056;2022-07-05T03:51:26;100702.20;;;20.10
67353;BMP180;54238;52.278;21.056;2022-07-05T03:53:54;100695.40;;;20.10
67353;BMP180;54238;52.278;21.056;2022-07-05T03:56:21;100696.60;;;20.10
67353;BMP180;54238;52.278;21.056;2022-07-05T03:58:51;100697.20;;;20.10
67353;BMP180;54238;52.278;21.056;2022-07-05T04:01:20;100694.20;;;20.10
67353;BMP180;54238;52.278;21.056;2022-07-05T04:03:49;100691.20;;;20.10
67353;BMP180;54238;52.278;21.056;2022-07-05T04:06:23;100693.00;;;20.10
67353;BMP180;54238;52.278;21.056;2022-07-05T04:08:50;100700.80;;;20.10
67353;BMP180;54238;52.278;21.056;2022-07-05T04:11:17;100708.80;;;20.18
67353;BMP180;54238;52.278;21.056;2022-07-05T04:13:44;100708.60;;;20.16
67353;BMP180;54238;52.278;21.056;2022-07-05T04:16:14;100704.40;;;20.20
67353;BMP180;54238;52.278;21.056;2022-07-05T04:18:45;100701.60;;;20.20
67353;BMP180;54238;52.278;21.056;2022-07-05T04:21:15;100698.80;;;20.20
67353;BMP180;54238;52.278;21.056;2022-07-05T04:23:42;100704.40;;;20.20
67353;BMP180;54238;52.278;21.056;2022-07-05T04:26:10;100712.60;;;20.28
67353;BMP180;54238;52.278;21.056;2022-07-05T04:28:39;100709.00;;;20.20
67353;BMP180;54238;52.278;21.056;2022-07-05T04:31:06;100706.80;;;20.20
67353;BMP180;54238;52.278;21.056;2022-07-05T04:33:37;100709.00;;;20.30
67353;BMP180;54238;52.278;21.056;2022-07-05T04:36:08;100709.60;;;20.30
67353;BMP180;54238;52.278;21.056;2022-07-05T04:38:37;100708.60;;;20.34
67353;BMP180;54238;52.278;21.056;2022-07-05T04:41:09;100704.40;;;20.40
67353;BMP180;54238;52.278;21.056;2022-07-05T04:43:39;100711.20;;;20.48
67353;BMP180;54238;52.278;21.056;2022-07-05T04:46:08;100719.20;;;20.50
67353;BMP180;54238;52.278;21.056;2022-07-05T04:48:37;100717.80;;;20.60
67353;BMP180;54238;52.278;21.056;2022-07-05T04:51:07;100716.80;;;20.68
67353;BMP180;54238;52.278;21.056;2022-07-05T04:53:36;100713.60;;;20.70
67353;BMP180;54238;52.278;21.056;2022-07-05T04:56:06;100710.60;;;20.70
67353;BMP180;54238;52.278;21.056;2022-07-05T04:58:36;100706.80;;;20.80
67353;BMP180;54238;52.278;21.056;2022-07-05T05:01:10;100703.60;;;20.86
67353;BMP180;54238;52.278;21.056;2022-07-05T05:03:37;100701.00;;;20.82
67353;BMP180;54238;52.278;21.056;2022-07-05T05:06:07;100711.40;;;20.80
67353;BMP180;54238;52.278;21.056;2022-07-05T05:08:36;100709.40;;;20.90
67353;BMP180;54238;52.278;21.056;2022-07-05T05:11:03;100718.00;;;21.00
67353;BMP180;54238;52.278;21.056;2022-07-05T05:13:32;100715.60;;;21.00
67353;BMP180;54238;52.278;21.056;2022-07-05T05:16:01;100719.20;;;21.10
67353;BMP180;54238;52.278;21.056;2022-07-05T05:18:31;100719.80;;;21.10
67353;BMP180;54238;52.278;21.056;2022-07-05T05:20:57;100719.20;;;21.10
67353;BMP180;54238;52.278;21.056;2022-07-05T05:23:27;100719.40;;;21.20
67353;BMP180;54238;52.278;21.056;2022-07-05T05:25:54;100723.20;;;21.20
67353;BMP180;54238;52.278;21.056;2022-07-05T05:28:21;100732.00;;;21.30
67353;BMP180;54238;52.278;21.056;2022-07-05T05:30:52;100734.40;;;21.40
67353;BMP180;54238;52.278;21.056;2022-07-05T05:33:19;100731.00;;;21.40
67353;BMP180;54238;52.278;21.056;2022-07-05T05:35:46;100733.40;;;21.42
67353;BMP180;54238;52.278;21.056;2022-07-05T05:38:13;100736.80;;;21.50
67353;BMP180;54238;52.278;21.056;2022-07-05T05:40:40;100736.40;;;21.60
67353;BMP180;54238;52.278;21.056;2022-07-05T05:43:17;100743.00;;;21.70
67353;BMP180;54238;52.278;21.056;2022-07-05T05:45:46;100747.60;;;21.80
67353;BMP180;54238;52.278;21.056;2022-07-05T05:48:13;100749.60;;;21.90
67353;BMP180;54238;52.278;21.056;2022-07-05T05:50:45;100749.80;;;21.94
67353;BMP180;54238;52.278;21.056;2022-07-05T05:53:12;100749.80;;;22.00
67353;BMP180;54238;52.278;21.056;2022-07-05T05:55:44;100738.80;;;22.00
67353;BMP180;54238;52.278;21.056;2022-07-05T05:58:22;100733.80;;;22.10
67353;BMP180;54238;52.278;21.056;2022-07-05T06:00:53;100728.40;;;22.20
67353;BMP180;54238;52.278;21.056;2022-07-05T06:03:26;100726.00;;;22.20
67353;BMP180;54238;52.278;21.056;2022-07-05T06:06:13;100721.20;;;22.30
67353;BMP180;54238;52.278;21.056;2022-07-05T06:08:40;100719.60;;;22.30
67353;BMP180;54238;52.278;21.056;2022-07-05T06:11:06;100717.40;;;22.32
67353;BMP180;54238;52.278;21.056;2022-07-05T06:13:34;100713.80;;;22.40
67353;BMP180;54238;52.278;21.056;2022-07-05T06:16:01;100715.60;;;22.48
67353;BMP180;54238;52.278;21.056;2022-07-05T06:18:28;100720.60;;;22.50
67353;BMP180;54238;52.278;21.056;2022-07-05T06:20:57;100717.00;;;22.60
67353;BMP180;54238;52.278;21.056;2022-07-05T06:23:27;100720.80;;;22.60
67353;BMP180;54238;52.278;21.056;2022-07-05T06:25:54;100723.60;;;22.60
67353;BMP180;54238;52.278;21.056;2022-07-05T06:28:21;100719.20;;;22.70
67353;BMP180;54238;52.278;21.056;2022-07-05T06:30:51;100717.20;;;22.70
67353;BMP180;54238;52.278;21.056;2022-07-05T06:33:25;100715.00;;;22.80
67353;BMP180;54238;52.278;21.056;2022-07-05T06:35:56;100719.80;;;22.90
67353;BMP180;54238;52.278;21.056;2022-07-05T06:38:26;100722.60;;;23.00
67353;BMP180;54238;52.278;21.056;2022-07-05T06:40:55;100718.40;;;23.00
67353;BMP180;54238;52.278;21.056;2022-07-05T06:43:23;100716.00;;;23.10
67353;BMP180;54238;52.278;21.056;2022-07-05T06:45:50;100714.60;;;23.10
67353;BMP180;54238;52.278;21.056;2022-07-05T06:48:20;100716.80;;;23.20
67353;BMP180;54238;52.278;21.056;2022-07-05T06:50:49;100719.80;;;23.30
67353;BMP180;54238;52.278;21.056;2022-07-05T06:53:23;100714.20;;;23.40
67353;BMP180;54238;52.278;21.056;2022-07-05T06:55:52;100712.20;;;23.50
67353;BMP180;54238;52.278;21.056;2022-07-05T06:58:24;100718.20;;;23.60
67353;BMP180;54238;52.278;21.056;2022-07-05T07:00:53;100723.20;;;23.70
67353;BMP180;54238;52.278;21.056;2022-07-05T07:03:21;100722.80;;;23.82
67353;BMP180;54238;52.278;21.056;2022-07-05T07:05:50;100721.60;;;23.92
67353;BMP180;54238;52.278;21.056;2022-07-05T07:08:20;100722.00;;;24.02
67353;BMP180;54238;52.278;21.056;2022-07-05T07:11:05;100728.20;;;24.20
67353;BMP180;54238;52.278;21.056;2022-07-05T07:13:34;100733.00;;;24.30
67353;BMP180;54238;52.278;21.056;2022-07-05T07:16:04;100738.80;;;24.40
67353;BMP180;54238;52.278;21.056;2022-07-05T07:18:33;100738.00;;;24.50
67353;BMP180;54238;52.278;21.056;2022-07-05T07:21:05;100745.80;;;24.50
67353;BMP180;54238;52.278;21.056;2022-07-05T07:23:32;100745.40;;;24.60
67353;BMP180;54238;52.278;21.056;2022-07-05T07:26:06;100742.60;;;24.70
67353;BMP180;54238;52.278;21.056;2022-07-05T07:28:33;100745.80;;;24.74
67353;BMP180;54238;52.278;21.056;2022-07-05T07:31:02;100749.00;;;24.80
67353;BMP180;54238;52.278;21.056;2022-07-05T07:33:31;100751.20;;;24.90
67353;BMP180;54238;52.278;21.056;2022-07-05T07:36:04;100751.60;;;25.00
67353;BMP180;54238;52.278;21.056;2022-07-05T07:38:31;100754.20;;;25.10
67353;BMP180;54238;52.278;21.056;2022-07-05T07:41:00;100744.00;;;25.20
67353;BMP180;54238;52.278;21.056;2022-07-05T07:43:27;100740.40;;;25.30
67353;BMP180;54238;52.278;21.056;2022-07-05T07:45:59;100734.20;;;25.40
67353;BMP180;54238;52.278;21.056;2022-07-05T07:48:27;100730.80;;;25.50
67353;BMP180;54238;52.278;21.056;2022-07-05T07:50:55;100734.80;;;25.60
67353;BMP180;54238;52.278;21.056;2022-07-05T07:53:27;100738.80;;;25.70
67353;BMP180;54238;52.278;21.056;2022-07-05T07:55:54;100742.00;;;25.78
67353;BMP180;54238;52.278;21.056;2022-07-05T07:58:21;100734.80;;;25.82
67353;BMP180;54238;52.278;21.056;2022-07-05T08:00:50;100732.80;;;25.90
67353;BMP180;54238;52.278;21.056;2022-07-05T08:03:17;100734.40;;;26.00
67353;BMP180;54238;52.278;21.056;2022-07-05T08:05:44;100735.00;;;26.10
67353;BMP180;54238;52.278;21.056;2022-07-05T08:08:16;100740.20;;;26.20
67353;BMP180;54238;52.278;21.056;2022-07-05T08:10:50;100737.80;;;26.30
67353;BMP180;54238;52.278;21.056;2022-07-05T08:13:20;100732.80;;;26.40
67353;BMP180;54238;52.278;21.056;2022-07-05T08:15:47;100725.80;;;26.50
67353;BMP180;54238;52.278;21.056;2022-07-05T08:18:16;100733.00;;;26.68
67353;BMP180;54238;52.278;21.056;2022-07-05T08:21:04;100731.40;;;26.70
67353;BMP180;54238;52.278;21.056;2022-07-05T08:23:50;100733.00;;;26.80
67353;BMP180;54238;52.278;21.056;2022-07-05T08:26:17;100730.20;;;26.82
67353;BMP180;54238;52.278;21.056;2022-07-05T08:28:44;100733.20;;;26.94
67353;BMP180;54238;52.278;21.056;2022-07-05T08:31:14;100735.20;;;27.10
67353;BMP180;54238;52.278;21.056;2022-07-05T08:33:41;100728.60;;;27.26
67353;BMP180;54238;52.278;21.056;2022-07-05T08:36:08;100728.00;;;27.40
67353;BMP180;54238;52.278;21.056;2022-07-05T08:38:37;100728.40;;;27.46
67353;BMP180;54238;52.278;21.056;2022-07-05T08:41:13;100729.20;;;27.30
67353;BMP180;54238;52.278;21.056;2022-07-05T08:43:45;100729.20;;;27.30
67353;BMP180;54238;52.278;21.056;2022-07-05T08:46:19;100731.60;;;27.38
67353;BMP180;54238;52.278;21.056;2022-07-05T08:48:50;100730.80;;;27.50
67353;BMP180;54238;52.278;21.056;2022-07-05T08:51:21;100730.00;;;27.60
67353;BMP180;54238;52.278;21.056;2022-07-05T08:53:51;100736.80;;;27.60
67353;BMP180;54238;52.278;21.056;2022-07-05T08:56:19;100736.60;;;27.68
67353;BMP180;54238;52.278;21.056;2022-07-05T08:58:46;100736.20;;;27.70
67353;BMP180;54238;52.278;21.056;2022-07-05T09:01:15;100729.20;;;27.50
67353;BMP180;54238;52.278;21.056;2022-07-05T09:03:47;100723.60;;;27.60
67353;BMP180;54238;52.278;21.056;2022-07-05T09:06:28;100729.00;;;27.70
67353;BMP180;54238;52.278;21.056;2022-07-05T09:09:00;100725.00;;;27.90
67353;BMP180;54238;52.278;21.056;2022-07-05T09:11:48;100730.20;;;28.00
67353;BMP180;54238;52.278;21.056;2022-07-05T09:14:24;100728.20;;;28.12
67353;BMP180;54238;52.278;21.056;2022-07-05T09:16:52;100732.40;;;28.30
67353;BMP180;54238;52.278;21.056;2022-07-05T09:19:24;100728.40;;;28.40
67353;BMP180;54238;52.278;21.056;2022-07-05T09:22:11;100737.60;;;28.40
67353;BMP180;54238;52.278;21.056;2022-07-05T09:24:45;100739.40;;;28.50
67353;BMP180;54238;52.278;21.056;2022-07-05T09:27:16;100734.60;;;28.60
67353;BMP180;54238;52.278;21.056;2022-07-05T09:29:55;100738.20;;;28.70
67353;BMP180;54238;52.278;21.056;2022-07-05T09:32:25;100741.00;;;28.80
67353;BMP180;54238;52.278;21.056;2022-07-05T09:35:23;100741.20;;;28.78
67353;BMP180;54238;52.278;21.056;2022-07-05T09:37:52;100741.20;;;28.70
67353;BMP180;54238;52.278;21.056;2022-07-05T09:40:19;100739.00;;;28.90
67353;BMP180;54238;52.278;21.056;2022-07-05T09:42:48;100737.20;;;29.08
67353;BMP180;54238;52.278;21.056;2022-07-05T09:45:26;100738.20;;;29.30
67353;BMP180;54238;52.278;21.056;2022-07-05T09:47:58;100733.80;;;29.60
67353;BMP180;54238;52.278;21.056;2022-07-05T09:50:36;100733.00;;;29.70
67353;BMP180;54238;52.278;21.056;2022-07-05T09:53:06;100727.40;;;29.80
67353;BMP180;54238;52.278;21.056;2022-07-05T09:55:40;100727.20;;;30.02
67353;BMP180;54238;52.278;21.056;2022-07-05T09:58:12;100724.20;;;30.10
67353;BMP180;54238;52.278;21.056;2022-07-05T10:00:39;100728.60;;;30.20
67353;BMP180;54238;52.278;21.056;2022-07-05T10:03:09;100725.60;;;30.30
67353;BMP180;54238;52.278;21.056;2022-07-05T10:05:38;100729.20;;;30.32
67353;BMP180;54238;52.278;21.056;2022-07-05T10:08:12;100729.00;;;30.40
67353;BMP180;54238;52.278;21.056;2022-07-05T10:10:43;100731.00;;;30.30
67353;BMP180;54238;52.278;21.056;2022-07-05T10:13:16;100730.60;;;30.20
67353;BMP180;54238;52.278;21.056;2022-07-05T10:15:44;100722.40;;;30.10
67353;BMP180;54238;52.278;21.056;2022-07-05T10:18:22;100725.00;;;30.10
67353;BMP180;54238;52.278;21.056;2022-07-05T10:21:38;100734.20;;;30.00
67353;BMP180;54238;52.278;21.056;2022-07-05T10:24:33;100732.20;;;29.88
67353;BMP180;54238;52.278;21.056;2022-07-05T10:27:05;100730.20;;;29.80
67353;BMP180;54238;52.278;21.056;2022-07-05T10:29:34;100727.80;;;29.68
67353;BMP180;54238;52.278;21.056;2022-07-05T10:32:08;100731.40;;;29.50
67353;BMP180;54238;52.278;21.056;2022-07-05T10:34:42;100733.00;;;29.30
67353;BMP180;54238;52.278;21.056;2022-07-05T10:37:16;100733.00;;;29.20
67353;BMP180;54238;52.278;21.056;2022-07-05T10:39:45;100732.60;;;29.20
67353;BMP180;54238;52.278;21.056;2022-07-05T10:42:15;100731.80;;;29.10
67353;BMP180;54238;52.278;21.056;2022-07-05T10:44:42;100730.40;;;29.00
67353;BMP180;54238;52.278;21.056;2022-07-05T10:47:14;100730.80;;;28.98
67353;BMP180;54238;52.278;21.056;2022-07-05T10:50:05;100731.60;;;28.90
67353;BMP180;54238;52.278;21.056;2022-07-05T10:52:34;100729.40;;;28.90
67353;BMP180;54238;52.278;21.056;2022-07-05T10:57:43;100732.00;;;28.80
67353;BMP180;54238;52.278;21.056;2022-07-05T11:00:14;100734.60;;;28.90
67353;BMP180;54238;52.278;21.056;2022-07-05T11:02:41;100731.00;;;28.88
67353;BMP180;54238;52.278;21.056;2022-07-05T11:05:18;100725.00;;;28.90
67353;BMP180;54238;52.278;21.056;2022-07-05T11:08:00;100725.80;;;29.00
67353;BMP180;54238;52.278;21.056;2022-07-05T11:10:31;100722.20;;;29.10
67353;BMP180;54238;52.278;21.056;2022-07-05T11:13:39;100726.40;;;29.20
67353;BMP180;54238;52.278;21.056;2022-07-05T11:16:37;100727.40;;;29.40
67353;BMP180;54238;52.278;21.056;2022-07-05T11:21:58;100722.00;;;29.64
67353;BMP180;54238;52.278;21.056;2022-07-05T11:24:27;100723.80;;;29.70
67353;BMP180;54238;52.278;21.056;2022-07-05T11:26:59;100723.20;;;29.80
67353;BMP180;54238;52.278;21.056;2022-07-05T11:29:46;100718.60;;;29.90
67353;BMP180;54238;52.278;21.056;2022-07-05T11:32:35;100717.40;;;30.00
67353;BMP180;54238;52.278;21.056;2022-07-05T11:35:15;100710.80;;;30.10
67353;BMP180;54238;52.278;21.056;2022-07-05T11:38:06;100714.60;;;30.20
67353;BMP180;54238;52.278;21.056;2022-07-05T11:40:37;100716.20;;;30.30
67353;BMP180;54238;52.278;21.056;2022-07-05T11:43:11;100710.00;;;30.30
67353;BMP180;54238;52.278;21.056;2022-07-05T11:45:45;100708.80;;;30.30
67353;BMP180;54238;52.278;21.056;2022-07-05T11:48:17;100707.40;;;30.34
67353;BMP180;54238;52.278;21.056;2022-07-05T11:50:46;100704.20;;;30.40
67353;BMP180;54238;52.278;21.056;2022-07-05T11:53:26;100698.60;;;30.30
67353;BMP180;54238;52.278;21.056;2022-07-05T11:56:00;100697.40;;;30.30
67353;BMP180;54238;52.278;21.056;2022-07-05T11:58:33;100699.80;;;30.40
67353;BMP180;54238;52.278;21.056;2022-07-05T12:01:02;100696.60;;;30.40
67353;BMP180;54238;52.278;21.056;2022-07-05T12:03:30;100693.60;;;30.24
67353;BMP180;54238;52.278;21.056;2022-07-05T12:06:09;100687.20;;;30.20
67353;BMP180;54238;52.278;21.056;2022-07-05T12:08:36;100686.80;;;30.20
67353;BMP180;54238;52.278;21.056;2022-07-05T12:11:04;100684.00;;;30.12
67353;BMP180;54238;52.278;21.056;2022-07-05T12:13:54;100678.80;;;30.10
67353;BMP180;54238;52.278;21.056;2022-07-05T12:16:23;100681.40;;;30.00
67353;BMP180;54238;52.278;21.056;2022-07-05T12:18:56;100676.40;;;29.90
67353;BMP180;54238;52.278;21.056;2022-07-05T12:21:28;100671.40;;;29.90
67353;BMP180;54238;52.278;21.056;2022-07-05T12:23:55;100666.60;;;29.80
67353;BMP180;54238;52.278;21.056;2022-07-05T12:26:22;100670.80;;;29.70
67353;BMP180;54238;52.278;21.056;2022-07-05T12:28:50;100667.60;;;29.60
67353;BMP180;54238;52.278;21.056;2022-07-05T12:31:22;100671.20;;;29.54
67353;BMP180;54238;52.278;21.056;2022-07-05T12:33:51;100673.00;;;29.50
67353;BMP180;54238;52.278;21.056;2022-07-05T12:36:26;100668.60;;;29.50
67353;BMP180;54238;52.278;21.056;2022-07-05T12:39:00;100673.80;;;29.40
67353;BMP180;54238;52.278;21.056;2022-07-05T12:41:30;100669.60;;;29.20
67353;BMP180;54238;52.278;21.056;2022-07-05T12:44:01;100673.00;;;29.00
67353;BMP180;54238;52.278;21.056;2022-07-05T12:46:40;100680.80;;;28.70
67353;BMP180;54238;52.278;21.056;2022-07-05T12:49:10;100681.80;;;28.50
67353;BMP180;54238;52.278;21.056;2022-07-05T12:51:41;100678.60;;;28.24
67353;BMP180;54238;52.278;21.056;2022-07-05T12:54:22;100682.40;;;28.18
67353;BMP180;54238;52.278;21.056;2022-07-05T12:57:08;100684.60;;;28.20
67353;BMP180;54238;52.278;21.056;2022-07-05T13:00:10;100683.20;;;28.20
67353;BMP180;54238;52.278;21.056;2022-07-05T13:02:44;100688.20;;;28.20
67353;BMP180;54238;52.278;21.056;2022-07-05T13:05:23;100693.00;;;28.18
67353;BMP180;54238;52.278;21.056;2022-07-05T13:07:54;100687.00;;;28.02
67353;BMP180;54238;52.278;21.056;2022-07-05T13:10:28;100688.20;;;27.96
67353;BMP180;54238;52.278;21.056;2022-07-05T13:12:59;100692.20;;;27.80
67353;BMP180;54238;52.278;21.056;2022-07-05T13:15:38;100690.40;;;27.60
67353;BMP180;54238;52.278;21.056;2022-07-05T13:18:07;100692.80;;;27.50
67353;BMP180;54238;52.278;21.056;2022-07-05T13:20:37;100690.00;;;27.40
67353;BMP180;54238;52.278;21.056;2022-07-05T13:23:04;100690.00;;;27.26
67353;BMP180;54238;52.278;21.056;2022-07-05T13:25:31;100695.60;;;27.10
67353;BMP180;54238;52.278;21.056;2022-07-05T13:27:58;100692.00;;;26.90
67353;BMP180;54238;52.278;21.056;2022-07-05T13:33:26;100689.00;;;26.60
67353;BMP180;54238;52.278;21.056;2022-07-05T13:35:53;100688.20;;;26.50
67353;BMP180;54238;52.278;21.056;2022-07-05T13:38:24;100689.20;;;26.40
67353;BMP180;54238;52.278;21.056;2022-07-05T13:40:56;100691.80;;;26.40
67353;BMP180;54238;52.278;21.056;2022-07-05T13:43:26;100692.00;;;26.30
67353;BMP180;54238;52.278;21.056;2022-07-05T13:45:53;100691.20;;;26.20
67353;BMP180;54238;52.278;21.056;2022-07-05T13:48:20;100689.40;;;26.00
67353;BMP180;54238;52.278;21.056;2022-07-05T13:50:46;100692.00;;;25.90
67353;BMP180;54238;52.278;21.056;2022-07-05T13:53:14;100694.00;;;25.80
67353;BMP180;54238;52.278;21.056;2022-07-05T13:55:43;100693.20;;;25.72
67353;BMP180;54238;52.278;21.056;2022-07-05T13:58:14;100694.20;;;25.66
67353;BMP180;54238;52.278;21.056;2022-07-05T14:00:41;100690.20;;;25.60
67353;BMP180;54238;52.278;21.056;2022-07-05T14:03:11;100691.40;;;25.50
67353;BMP180;54238;52.278;21.056;2022-07-05T14:05:43;100687.60;;;25.40
67353;BMP180;54238;52.278;21.056;2022-07-05T14:08:15;100688.60;;;25.30
67353;BMP180;54238;52.278;21.056;2022-07-05T14:10:53;100688.40;;;25.30
67353;BMP180;54238;52.278;21.056;2022-07-05T14:13:25;100688.20;;;25.20
67353;BMP180;54238;52.278;21.056;2022-07-05T14:15:55;100689.80;;;25.20